createdAt,value
2022-08-26T00:00:38.163Z,22.70
2022-08-26T00:03:42.969Z,22.60
2022-08-26T00:06:46.437Z,22.60
2022-08-26T00:09:54.385Z,22.60
2022-08-26T00:12:58.358Z,22.60
2022-08-26T00:16:02.466Z,22.50
2022-08-26T00:19:06.830Z,22.50
2022-08-26T00:22:11.120Z,22.50
2022-08-26T00:25:15.704Z,22.50
2022-08-26T00:28:21.048Z,22.50
2022-08-26T00:31:24.624Z,22.50
2022-08-26T00:34:29.025Z,22.50
2022-08-26T00:37:32.251Z,22.40
2022-08-26T00:40:38.360Z,22.40
2022-08-26T00:43:47.331Z,22.40
2022-08-26T00:46:55.867Z,22.30
2022-08-26T00:50:03.015Z,22.30
2022-08-26T00:53:21.458Z,22.30
2022-08-26T00:56:30.318Z,22.30
2022-08-26T00:59:34.023Z,22.30
2022-08-26T01:02:37.997Z,22.20
2022-08-26T01:05:45.360Z,22.20
2022-08-26T01:08:49.382Z,22.20
2022-08-26T01:11:56.342Z,22.10
2022-08-26T01:14:59.565Z,22.20
2022-08-26T01:18:05.366Z,22.20
2022-08-26T01:21:20.030Z,22.20
2022-08-26T01:24:25.972Z,22.20
2022-08-26T01:27:32.391Z,22.20
2022-08-26T01:30:37.766Z,22.10
2022-08-26T01:33:52.023Z,22.00
2022-08-26T01:37:02.458Z,22.00
2022-08-26T01:40:10.539Z,21.90
2022-08-26T01:43:17.927Z,22.00
2022-08-26T01:46:23.699Z,22.00
2022-08-26T01:49:27.807Z,22.00
2022-08-26T01:52:32.988Z,22.00
2022-08-26T01:55:39.624Z,21.90
2022-08-26T01:58:47.348Z,21.90
2022-08-26T02:01:50.735Z,21.90
2022-08-26T02:05:00.609Z,21.80
2022-08-26T02:08:04.931Z,21.80
2022-08-26T02:11:09.514Z,21.80
2022-08-26T02:14:14.632Z,21.80
2022-08-26T02:17:21.249Z,21.80
2022-08-26T02:20:26.443Z,21.70
2022-08-26T02:23:29.891Z,21.70
2022-08-26T02:26:34.467Z,21.70
2022-08-26T02:29:39.647Z,21.70
2022-08-26T02:32:42.988Z,21.60
2022-08-26T02:35:46.159Z,21.60
2022-08-26T02:38:49.690Z,21.60
2022-08-26T02:41:56.854Z,21.50
2022-08-26T02:45:00.082Z,21.50
2022-08-26T02:48:10.987Z,21.50
2022-08-26T02:51:14.000Z,21.50
2022-08-26T02:54:17.669Z,21.50
2022-08-26T02:57:22.920Z,21.50
2022-08-26T03:00:27.457Z,21.50
2022-08-26T03:03:31.970Z,21.40
2022-08-26T03:06:35.607Z,21.40
2022-08-26T03:09:39.905Z,21.40
2022-08-26T03:12:45.279Z,21.40
2022-08-26T03:15:50.581Z,21.30
2022-08-26T03:18:53.782Z,21.30
2022-08-26T03:21:57.868Z,21.30
2022-08-26T03:25:01.222Z,21.30
2022-08-26T03:28:07.802Z,21.30
2022-08-26T03:31:11.787Z,21.20
2022-08-26T03:34:16.193Z,21.30
2022-08-26T03:37:19.330Z,21.20
2022-08-26T03:40:24.518Z,21.20
2022-08-26T03:43:33.530Z,21.20
2022-08-26T03:46:36.641Z,21.20
2022-08-26T03:49:39.858Z,21.20
2022-08-26T03:52:44.149Z,21.10
2022-08-26T03:55:47.884Z,21.10
2022-08-26T03:58:56.517Z,21.10
2022-08-26T04:01:59.583Z,21.10
2022-08-26T04:05:02.876Z,21.10
2022-08-26T04:08:06.725Z,21.10
2022-08-26T04:11:10.453Z,21.00
2022-08-26T04:14:21.352Z,21.00
2022-08-26T04:17:25.830Z,21.00
2022-08-26T04:20:29.368Z,21.00
2022-08-26T04:23:32.560Z,21.00
2022-08-26T04:26:50.718Z,21.00
2022-08-26T04:29:55.414Z,21.00
2022-08-26T04:32:58.546Z,21.00
2022-08-26T04:36:02.954Z,21.00
2022-08-26T04:39:07.158Z,21.00
2022-08-26T04:42:10.171Z,21.00
2022-08-26T04:45:14.506Z,21.00
2022-08-26T04:48:17.498Z,21.00
2022-08-26T04:51:27.246Z,21.00
2022-08-26T04:54:31.218Z,21.00
2022-08-26T04:57:34.464Z,21.00
2022-08-26T05:00:39.734Z,21.00
2022-08-26T05:03:43.662Z,21.00
2022-08-26T05:06:48.197Z,21.00
2022-08-26T05:09:51.274Z,21.00
2022-08-26T05:12:54.279Z,21.10
2022-08-26T05:16:02.928Z,21.10
2022-08-26T05:19:06.892Z,21.10
2022-08-26T05:22:13.174Z,21.20
2022-08-26T05:25:17.370Z,21.20
2022-08-26T05:28:21.889Z,21.20
2022-08-26T05:31:29.376Z,21.20
2022-08-26T05:34:33.229Z,21.30
2022-08-26T05:37:38.082Z,21.30
2022-08-26T05:40:44.395Z,21.30
2022-08-26T05:43:47.429Z,21.40
2022-08-26T05:46:53.229Z,21.50
2022-08-26T05:49:56.237Z,21.50
2022-08-26T05:52:59.314Z,21.60
2022-08-26T05:56:04.052Z,21.70
2022-08-26T05:59:14.218Z,21.80
2022-08-26T06:02:19.030Z,21.80
2022-08-26T06:05:22.416Z,21.80
2022-08-26T06:08:25.883Z,21.80
2022-08-26T06:11:32.421Z,21.90
2022-08-26T06:14:36.029Z,21.90
2022-08-26T06:17:40.406Z,22.00
2022-08-26T06:20:57.104Z,22.00
2022-08-26T06:24:20.684Z,22.00
2022-08-26T06:27:32.829Z,22.10
2022-08-26T06:30:41.411Z,22.10
2022-08-26T06:33:46.467Z,22.20
2022-08-26T06:36:53.128Z,22.20
2022-08-26T06:39:56.209Z,22.30
2022-08-26T06:43:00.640Z,22.30
2022-08-26T06:46:07.954Z,22.30
2022-08-26T06:49:17.214Z,22.50
2022-08-26T06:52:24.387Z,22.70
2022-08-26T06:55:27.786Z,22.80
2022-08-26T06:58:30.846Z,23.00
2022-08-26T07:01:38.785Z,23.00
2022-08-26T07:04:47.722Z,23.00
2022-08-26T07:07:52.417Z,23.20
2022-08-26T07:10:55.977Z,23.30
2022-08-26T07:13:59.358Z,23.40
2022-08-26T07:17:03.851Z,23.50
2022-08-26T07:20:09.393Z,23.60
2022-08-26T07:23:12.382Z,23.60
2022-08-26T07:26:17.733Z,23.70
2022-08-26T07:29:20.819Z,23.80
2022-08-26T07:32:27.804Z,23.90
2022-08-26T07:35:32.168Z,24.00
2022-08-26T07:38:36.734Z,24.10
2022-08-26T07:41:40.253Z,24.20
2022-08-26T07:44:44.817Z,24.40
2022-08-26T07:47:47.851Z,24.50
2022-08-26T07:50:53.722Z,24.70
2022-08-26T07:53:57.050Z,24.90
2022-08-26T07:57:00.822Z,25.10
2022-08-26T08:00:12.761Z,25.40
2022-08-26T08:03:16.117Z,25.70
2022-08-26T08:06:22.306Z,25.80
2022-08-26T08:09:25.872Z,26.00
2022-08-26T08:12:30.124Z,26.20
2022-08-26T08:15:33.219Z,26.50
2022-08-26T08:18:38.656Z,26.60
2022-08-26T08:21:45.097Z,26.70
2022-08-26T08:24:49.746Z,26.80
2022-08-26T08:27:53.140Z,26.80
2022-08-26T08:30:56.364Z,26.60
2022-08-26T08:33:59.535Z,26.50
2022-08-26T08:37:08.644Z,26.40
2022-08-26T08:40:18.276Z,26.40
2022-08-26T08:43:32.597Z,26.20
2022-08-26T08:46:42.544Z,26.20
2022-08-26T08:49:46.443Z,26.20
2022-08-26T08:52:56.138Z,26.30
2022-08-26T08:56:11.265Z,26.30
2022-08-26T08:59:17.217Z,26.30
2022-08-26T09:02:27.363Z,26.30
2022-08-26T09:05:36.887Z,26.20
2022-08-26T09:08:41.527Z,26.30
2022-08-26T09:11:44.590Z,26.30
2022-08-26T09:14:49.030Z,26.30
2022-08-26T09:18:10.967Z,26.40
2022-08-26T09:21:17.810Z,26.40
2022-08-26T09:24:22.398Z,26.60
2022-08-26T09:27:41.572Z,26.70
2022-08-26T09:30:47.469Z,26.70
2022-08-26T09:34:03.200Z,26.80
2022-08-26T09:37:08.451Z,26.90
2022-08-26T09:40:20.397Z,27.00
2022-08-26T09:43:23.731Z,27.00
2022-08-26T09:46:29.321Z,27.20
2022-08-26T09:49:36.468Z,27.30
2022-08-26T09:52:40.597Z,27.30
2022-08-26T09:55:49.720Z,27.30
2022-08-26T09:58:53.343Z,27.40
2022-08-26T10:01:56.801Z,27.40
2022-08-26T10:05:09.006Z,27.30
2022-08-26T10:08:25.976Z,27.20
2022-08-26T10:11:38.247Z,27.10
2022-08-26T10:14:48.954Z,27.00
2022-08-26T10:17:59.860Z,27.00
2022-08-26T10:21:08.308Z,26.90
2022-08-26T10:24:15.895Z,26.80
2022-08-26T10:27:32.985Z,26.80
2022-08-26T10:30:44.540Z,26.70
2022-08-26T10:33:48.122Z,26.80
2022-08-26T10:37:14.525Z,27.00
2022-08-26T10:40:25.509Z,27.10
2022-08-26T10:43:34.659Z,27.10
2022-08-26T10:46:45.351Z,27.00
2022-08-26T10:49:52.280Z,27.00
2022-08-26T10:53:02.133Z,27.00
2022-08-26T10:56:18.009Z,27.00
2022-08-26T10:59:36.793Z,26.90
2022-08-26T11:02:48.215Z,27.00
2022-08-26T11:06:22.171Z,27.10
2022-08-26T11:09:45.213Z,27.10
2022-08-26T11:12:52.667Z,27.20
2022-08-26T11:16:01.187Z,27.30
2022-08-26T11:19:05.063Z,27.40
2022-08-26T11:22:11.633Z,27.50
2022-08-26T11:25:19.730Z,27.60
2022-08-26T11:28:34.610Z,27.70
2022-08-26T11:31:57.117Z,27.80
2022-08-26T11:35:06.466Z,28.00
2022-08-26T11:38:18.376Z,28.10
2022-08-26T11:41:29.061Z,28.30
2022-08-26T11:44:39.761Z,28.50
2022-08-26T11:47:46.532Z,28.70
2022-08-26T11:50:54.770Z,29.10
2022-08-26T11:54:11.816Z,29.60
2022-08-26T11:57:14.903Z,30.30
2022-08-26T12:00:23.428Z,30.60
2022-08-26T12:03:37.865Z,30.90
2022-08-26T12:06:48.220Z,31.00
2022-08-26T12:09:57.730Z,31.00
2022-08-26T12:13:02.348Z,30.80
2022-08-26T12:16:06.854Z,30.80
2022-08-26T12:19:26.285Z,30.70
2022-08-26T12:22:34.488Z,30.60
2022-08-26T12:25:39.354Z,30.20
2022-08-26T12:28:45.227Z,30.00
2022-08-26T12:31:49.754Z,29.80
2022-08-26T12:34:55.055Z,29.70
2022-08-26T12:37:59.152Z,29.70
2022-08-26T12:41:02.653Z,29.80
2022-08-26T12:44:05.824Z,30.00
2022-08-26T12:47:12.889Z,30.30
2022-08-26T12:50:20.709Z,30.50
2022-08-26T12:53:25.556Z,30.40
2022-08-26T12:56:34.307Z,30.20
2022-08-26T12:59:37.388Z,29.80
2022-08-26T13:02:40.408Z,29.60
2022-08-26T13:05:44.783Z,29.40
2022-08-26T13:08:48.830Z,29.20
2022-08-26T13:11:59.633Z,29.10
2022-08-26T13:15:07.712Z,29.00
2022-08-26T13:18:10.704Z,28.90
2022-08-26T13:21:18.773Z,28.80
2022-08-26T13:24:26.211Z,28.70
2022-08-26T13:27:29.256Z,28.60
2022-08-26T13:30:32.468Z,28.60
2022-08-26T13:33:35.639Z,28.50
2022-08-26T13:36:40.105Z,28.30
2022-08-26T13:39:43.167Z,28.20
2022-08-26T13:42:50.106Z,28.20
2022-08-26T13:45:53.359Z,28.20
2022-08-26T13:48:56.446Z,28.10
2022-08-26T13:52:02.924Z,28.10
2022-08-26T13:55:07.891Z,28.00
2022-08-26T13:58:11.355Z,27.90
2022-08-26T14:01:15.610Z,28.00
2022-08-26T14:04:26.984Z,28.10
2022-08-26T14:07:31.927Z,28.10
2022-08-26T14:10:35.058Z,28.00
2022-08-26T14:13:39.169Z,28.10
2022-08-26T14:16:59.061Z,28.20
2022-08-26T14:20:03.956Z,28.10
2022-08-26T14:23:13.963Z,28.10
2022-08-26T14:26:28.335Z,28.10
2022-08-26T14:29:32.546Z,28.10
2022-08-26T14:32:36.882Z,28.10
2022-08-26T14:35:40.039Z,28.10
2022-08-26T14:38:52.575Z,28.00
2022-08-26T14:41:57.319Z,28.00
2022-08-26T14:45:03.029Z,28.10
2022-08-26T14:48:06.228Z,28.20
2022-08-26T14:51:09.235Z,28.30
2022-08-26T14:54:16.087Z,28.40
2022-08-26T14:57:19.112Z,28.50
2022-08-26T15:00:22.115Z,28.60
2022-08-26T15:03:25.165Z,28.70
2022-08-26T15:06:28.975Z,28.80
2022-08-26T15:09:36.307Z,28.80
2022-08-26T15:12:40.281Z,28.80
2022-08-26T15:15:43.304Z,28.80
2022-08-26T15:18:46.303Z,28.80
2022-08-26T15:21:49.764Z,28.70
2022-08-26T15:24:54.369Z,28.50
2022-08-26T15:27:57.376Z,28.40
2022-08-26T15:31:00.559Z,28.30
2022-08-26T15:34:05.767Z,28.30
2022-08-26T15:37:09.609Z,28.20
2022-08-26T15:40:14.220Z,28.10
2022-08-26T15:43:28.113Z,28.10
2022-08-26T15:46:32.381Z,28.00
2022-08-26T15:49:35.514Z,27.90
2022-08-26T15:52:39.511Z,27.70
2022-08-26T15:55:43.873Z,27.60
2022-08-26T15:58:46.886Z,27.40
2022-08-26T16:01:50.932Z,27.20
2022-08-26T16:04:53.976Z,26.90
2022-08-26T16:07:57.741Z,26.90
2022-08-26T16:11:04.468Z,26.80
2022-08-26T16:14:08.318Z,26.70
2022-08-26T16:17:11.494Z,26.70
2022-08-26T16:20:14.715Z,26.70
2022-08-26T16:23:18.296Z,26.60
2022-08-26T16:26:25.213Z,26.60
2022-08-26T16:29:28.681Z,26.30
2022-08-26T16:32:31.666Z,26.30
2022-08-26T16:35:34.954Z,26.30
2022-08-26T16:38:38.770Z,26.40
2022-08-26T16:41:44.213Z,26.30
2022-08-26T16:44:47.416Z,26.30
2022-08-26T16:47:51.296Z,26.30
2022-08-26T16:50:55.497Z,26.20
2022-08-26T16:53:59.782Z,26.10
2022-08-26T16:57:04.179Z,26.20
2022-08-26T17:00:12.459Z,26.20
2022-08-26T17:03:15.870Z,26.30
2022-08-26T17:06:19.072Z,26.30
2022-08-26T17:09:22.509Z,26.20
2022-08-26T17:12:28.274Z,26.20
2022-08-26T17:15:31.395Z,26.00
2022-08-26T17:18:35.719Z,25.70
2022-08-26T17:21:40.598Z,25.40
2022-08-26T17:24:43.734Z,25.10
2022-08-26T17:27:48.410Z,25.00
2022-08-26T17:30:51.616Z,24.80
2022-08-26T17:33:55.417Z,24.60
2022-08-26T17:36:59.032Z,24.40
2022-08-26T17:40:02.395Z,24.30
2022-08-26T17:43:11.687Z,24.10
2022-08-26T17:46:15.340Z,24.00
2022-08-26T17:49:18.400Z,23.70
2022-08-26T17:52:21.474Z,23.40
2022-08-26T17:55:24.565Z,23.30
2022-08-26T17:58:29.147Z,23.10
2022-08-26T18:01:32.337Z,23.10
2022-08-26T18:04:35.495Z,23.10
2022-08-26T18:07:43.719Z,22.90
2022-08-26T18:10:48.066Z,22.80
2022-08-26T18:13:53.106Z,22.70
2022-08-26T18:16:56.273Z,22.70
2022-08-26T18:19:59.518Z,22.80
2022-08-26T18:23:02.581Z,22.80
2022-08-26T18:26:05.635Z,22.70
2022-08-26T18:29:11.126Z,22.70
2022-08-26T18:32:14.414Z,22.70
2022-08-26T18:35:17.469Z,22.60
2022-08-26T18:38:20.461Z,22.60
2022-08-26T18:41:27.674Z,22.70
2022-08-26T18:44:32.190Z,22.80
2022-08-26T18:47:35.514Z,22.80
2022-08-26T18:50:40.734Z,22.70
2022-08-26T18:53:43.742Z,22.70
2022-08-26T18:56:46.922Z,22.70
2022-08-26T18:59:51.298Z,22.70
2022-08-26T19:02:55.992Z,22.50
2022-08-26T19:05:59.209Z,22.40
2022-08-26T19:09:02.862Z,22.50
2022-08-26T19:12:07.886Z,22.50
2022-08-26T19:15:13.490Z,22.40
2022-08-26T19:18:17.582Z,22.40
2022-08-26T19:21:21.988Z,22.40
2022-08-26T19:24:26.030Z,22.30
2022-08-26T19:27:32.261Z,22.30
2022-08-26T19:30:40.372Z,22.40
2022-08-26T19:33:45.346Z,22.40
2022-08-26T19:36:48.378Z,22.40
2022-08-26T19:39:51.442Z,22.40
2022-08-26T19:42:54.742Z,22.40
2022-08-26T19:45:59.210Z,22.30
2022-08-26T19:49:02.272Z,22.20
2022-08-26T19:52:05.982Z,22.20
2022-08-26T19:55:10.692Z,22.10
2022-08-26T19:58:14.468Z,22.00
2022-08-26T20:01:20.161Z,22.00
2022-08-26T20:04:23.512Z,22.00
2022-08-26T20:07:26.677Z,21.90
2022-08-26T20:10:29.720Z,21.80
2022-08-26T20:13:33.071Z,21.80
2022-08-26T20:16:37.456Z,21.80
2022-08-26T20:19:58.345Z,21.70
2022-08-26T20:23:02.400Z,21.70
2022-08-26T20:26:06.355Z,21.70
2022-08-26T20:29:10.597Z,21.70
2022-08-26T20:32:15.015Z,21.70
2022-08-26T20:35:18.267Z,21.80
2022-08-26T20:38:21.707Z,21.80
2022-08-26T20:41:25.744Z,21.80
2022-08-26T20:44:28.764Z,21.80
2022-08-26T20:47:33.502Z,21.80
2022-08-26T20:50:38.974Z,21.70
2022-08-26T20:53:42.518Z,21.70
2022-08-26T20:56:45.571Z,21.70
2022-08-26T20:59:49.071Z,21.60
2022-08-26T21:02:53.427Z,21.60
2022-08-26T21:05:56.447Z,21.50
2022-08-26T21:08:59.471Z,21.40
2022-08-26T21:12:02.652Z,21.50
2022-08-26T21:15:07.384Z,21.50
2022-08-26T21:18:11.842Z,21.50
2022-08-26T21:21:15.999Z,21.50
2022-08-26T21:24:18.987Z,21.50
2022-08-26T21:27:24.427Z,21.50
2022-08-26T21:30:29.831Z,21.50
2022-08-26T21:33:34.670Z,21.50
2022-08-26T21:36:37.703Z,21.50
2022-08-26T21:39:40.682Z,21.40
2022-08-26T21:42:43.690Z,21.40
2022-08-26T21:45:46.946Z,21.40
2022-08-26T21:48:54.539Z,21.40
2022-08-26T21:51:57.680Z,21.40
2022-08-26T21:55:02.540Z,21.30
2022-08-26T21:58:05.586Z,21.40
2022-08-26T22:01:10.239Z,21.40
2022-08-26T22:04:15.203Z,21.40
2022-08-26T22:07:19.948Z,21.30
2022-08-26T22:10:23.201Z,21.30
2022-08-26T22:13:29.390Z,21.30
2022-08-26T22:16:32.452Z,21.30
2022-08-26T22:19:45.896Z,21.30
2022-08-26T22:22:49.746Z,21.30
2022-08-26T22:25:54.365Z,21.30
2022-08-26T22:28:59.537Z,21.20
2022-08-26T22:32:02.729Z,21.10
2022-08-26T22:35:28.270Z,21.10
2022-08-26T22:38:31.841Z,21.10
2022-08-26T22:41:35.234Z,21.10
2022-08-26T22:44:38.235Z,21.10
2022-08-26T22:47:42.518Z,21.00
2022-08-26T22:50:48.142Z,21.00
2022-08-26T22:53:51.234Z,21.00
2022-08-26T22:56:54.234Z,21.00
2022-08-26T22:59:57.405Z,21.10
2022-08-26T23:03:01.234Z,21.10
2022-08-26T23:06:09.418Z,21.00
2022-08-26T23:09:12.625Z,21.00
2022-08-26T23:12:16.264Z,21.00
2022-08-26T23:15:21.238Z,21.00
2022-08-26T23:18:24.236Z,21.00
2022-08-26T23:21:28.600Z,21.00
2022-08-26T23:24:32.132Z,21.00
2022-08-26T23:27:36.274Z,21.00
2022-08-26T23:30:39.380Z,21.00
2022-08-26T23:34:01.007Z,20.90
2022-08-26T23:37:31.405Z,20.90
2022-08-26T23:40:36.283Z,20.90
2022-08-26T23:43:39.934Z,20.90
2022-08-26T23:46:43.565Z,20.90
2022-08-26T23:49:46.584Z,20.90
2022-08-26T23:53:08.927Z,20.90
2022-08-26T23:56:15.858Z,20.90
2022-08-26T23:59:18.980Z,20.80
